Time;durP1;ratioP1;P1;durP2;ratioP2;P2;SDS_P1;SDS_P2;PMS_P1;PMS_P2;Temp;Humidity;BMP_temperature;BMP_pressure;BME280_temperature;BME280_humidity;BME280_pressure;Samples;Min_cycle;Max_cycle;Signal;HPM_P1;HPM_P2
2023/10/27 00:01:09;;;;;;;20.47;9.47;;;;;;;;;;5076155;28;20119;-66
2023/10/27 00:03:35;;;;;;;21.93;9.70;;;;;;;;;;5082827;28;20201;-65
2023/10/27 00:06:00;;;;;;;25.17;11.00;;;;;;;;;;5079372;28;20038;-66
2023/10/27 00:08:25;;;;;;;21.30;9.90;;;;;;;;;;5076766;28;20032;-66
2023/10/27 00:10:52;;;;;;;23.70;9.90;;;;;;;;;;5080083;28;20012;-66
2023/10/27 00:13:17;;;;;;;22.27;10.10;;;;;;;;;;5074938;28;20505;-66
2023/10/27 00:15:42;;;;;;;21.03;9.63;;;;;;;;;;5078639;28;20100;-67
2023/10/27 00:18:07;;;;;;;29.83;10.83;;;;;;;;;;5075765;28;20028;-66
2023/10/27 00:20:33;;;;;;;23.43;9.43;;;;;;;;;;5079191;28;20024;-66
2023/10/27 00:22:58;;;;;;;22.73;10.27;;;;;;;;;;5084547;28;20035;-66
2023/10/27 00:25:24;;;;;;;23.63;10.90;;;;;;;;;;5074289;28;20035;-64
2023/10/27 00:27:49;;;;;;;26.27;10.60;;;;;;;;;;5077941;28;20103;-64
2023/10/27 00:30:14;;;;;;;27.90;10.87;;;;;;;;;;5084146;28;20107;-64
2023/10/27 00:32:40;;;;;;;29.73;11.30;;;;;;;;;;5084281;28;20027;-64
2023/10/27 00:35:05;;;;;;;32.20;11.83;;;;;;;;;;5084588;28;20020;-64
2023/10/27 00:37:34;;;;;;;27.97;11.20;;;;;;;;;;5079803;28;20519;-65
2023/10/27 00:40:00;;;;;;;29.53;12.23;;;;;;;;;;5072158;28;20090;-63
2023/10/27 00:42:25;;;;;;;29.60;11.90;;;;;;;;;;5082464;28;20051;-64
2023/10/27 00:44:51;;;;;;;36.67;12.07;;;;;;;;;;5079102;28;20028;-64
2023/10/27 00:47:16;;;;;;;31.20;11.50;;;;;;;;;;5075513;28;20015;-63
2023/10/27 00:49:42;;;;;;;33.07;11.70;;;;;;;;;;5080070;28;20024;-63
2023/10/27 00:52:07;;;;;;;32.80;12.57;;;;;;;;;;5082627;28;20064;-63
2023/10/27 00:54:33;;;;;;;39.57;12.87;;;;;;;;;;5080003;28;20024;-63
2023/10/27 00:56:58;;;;;;;36.37;12.17;;;;;;;;;;5080486;28;20027;-63
2023/10/27 00:59:24;;;;;;;33.60;12.60;;;;;;;;;;5073110;28;20031;-63
2023/10/27 01:01:49;;;;;;;30.60;11.93;;;;;;;;;;5081311;28;20047;-64
2023/10/27 01:04:15;;;;;;;30.87;11.80;;;;;;;;;;5078812;28;20512;-64
2023/10/27 01:06:40;;;;;;;38.57;12.87;;;;;;;;;;5077432;28;20020;-64
2023/10/27 01:09:05;;;;;;;30.67;12.03;;;;;;;;;;5080176;28;20051;-62
2023/10/27 01:11:31;;;;;;;31.40;12.47;;;;;;;;;;5077276;28;20020;-63
2023/10/27 01:13:56;;;;;;;33.40;12.87;;;;;;;;;;5077807;28;20116;-62
2023/10/27 01:16:22;;;;;;;32.57;12.43;;;;;;;;;;5079378;28;20370;-63
2023/10/27 01:18:47;;;;;;;29.87;11.53;;;;;;;;;;5076237;28;20390;-64
2023/10/27 01:30:21;;;;;;;26.77;9.97;;;;;;;;;;5080642;28;20080;-62
2023/10/27 01:32:46;;;;;;;26.53;10.87;;;;;;;;;;5077376;28;20472;-63
2023/10/27 01:35:12;;;;;;;25.33;10.00;;;;;;;;;;5071853;28;20032;-65
2023/10/27 01:37:37;;;;;;;25.60;10.23;;;;;;;;;;5071137;28;20042;-66
2023/10/27 01:40:03;;;;;;;28.03;10.00;;;;;;;;;;5081301;28;20077;-65
2023/10/27 01:42:29;;;;;;;23.63;10.07;;;;;;;;;;5079423;28;20031;-66
2023/10/27 01:44:54;;;;;;;23.13;9.20;;;;;;;;;;5081826;28;20443;-65
2023/10/27 01:47:19;;;;;;;25.27;10.30;;;;;;;;;;5079890;28;20460;-66
2023/10/27 01:49:45;;;;;;;21.90;9.60;;;;;;;;;;5074717;28;20385;-65
2023/10/27 01:52:10;;;;;;;21.83;8.97;;;;;;;;;;5080369;28;20016;-65
2023/10/27 01:54:35;;;;;;;21.17;9.47;;;;;;;;;;5078353;28;20826;-66
2023/10/27 01:57:00;;;;;;;25.40;10.10;;;;;;;;;;5079919;28;20016;-66
2023/10/27 01:59:27;;;;;;;24.43;10.03;;;;;;;;;;5080627;28;20492;-66
2023/10/27 02:01:52;;;;;;;26.27;11.10;;;;;;;;;;5077571;28;20111;-66
2023/10/27 02:04:20;;;;;;;25.50;10.30;;;;;;;;;;5079595;28;20636;-66
2023/10/27 02:06:45;;;;;;;30.17;11.23;;;;;;;;;;5078037;28;20465;-66
2023/10/27 02:09:10;;;;;;;32.47;11.23;;;;;;;;;;5074764;28;20050;-66
2023/10/27 02:11:36;;;;;;;29.63;11.37;;;;;;;;;;5080998;28;20089;-66
2023/10/27 02:14:01;;;;;;;30.17;11.07;;;;;;;;;;5073984;28;20043;-66
2023/10/27 02:16:26;;;;;;;28.80;11.13;;;;;;;;;;5077962;28;20028;-66
2023/10/27 02:18:51;;;;;;;30.63;11.50;;;;;;;;;;5074991;28;20442;-66
2023/10/27 02:21:17;;;;;;;28.83;10.63;;;;;;;;;;5075699;28;20430;-66
2023/10/27 02:23:42;;;;;;;29.47;11.50;;;;;;;;;;5075462;28;20027;-66
2023/10/27 02:26:07;;;;;;;30.90;10.93;;;;;;;;;;5076797;28;20024;-66
2023/10/27 02:28:32;;;;;;;27.00;10.07;;;;;;;;;;5079596;28;20020;-66
2023/10/27 02:30:58;;;;;;;34.77;11.30;;;;;;;;;;5080345;28;20040;-66
2023/10/27 02:33:24;;;;;;;30.07;11.17;;;;;;;;;;5077848;28;20058;-65
2023/10/27 02:35:49;;;;;;;30.63;10.87;;;;;;;;;;5081244;28;20438;-66
2023/10/27 02:38:14;;;;;;;30.60;10.73;;;;;;;;;;5084184;28;20039;-66
2023/10/27 02:40:39;;;;;;;30.00;10.83;;;;;;;;;;5083071;28;20028;-65
2023/10/27 02:43:05;;;;;;;30.17;11.00;;;;;;;;;;5082554;28;20024;-65
2023/10/27 02:45:30;;;;;;;27.43;10.83;;;;;;;;;;5082977;28;20167;-66
2023/10/27 02:47:55;;;;;;;28.63;10.93;;;;;;;;;;5080142;28;20674;-66
2023/10/27 02:50:20;;;;;;;31.60;11.33;;;;;;;;;;5084148;28;20101;-66
2023/10/27 02:52:46;;;;;;;28.70;11.03;;;;;;;;;;5083360;28;20016;-66
2023/10/27 02:55:11;;;;;;;28.73;10.50;;;;;;;;;;5083619;28;20361;-65
2023/10/27 02:57:36;;;;;;;30.50;10.93;;;;;;;;;;5082331;28;20373;-66
2023/10/27 03:00:02;;;;;;;28.33;10.80;;;;;;;;;;5082903;28;20063;-65
2023/10/27 03:02:27;;;;;;;30.53;11.30;;;;;;;;;;5082016;28;20058;-66
2023/10/27 03:04:54;;;;;;;27.63;10.70;;;;;;;;;;5082112;28;20042;-66
2023/10/27 03:07:20;;;;;;;27.57;10.50;;;;;;;;;;5082270;28;20074;-66
2023/10/27 03:09:45;;;;;;;31.10;10.43;;;;;;;;;;5083163;28;20214;-66
2023/10/27 03:12:11;;;;;;;28.47;10.07;;;;;;;;;;5081840;28;20570;-66
2023/10/27 03:14:37;;;;;;;26.80;10.00;;;;;;;;;;5080448;28;20153;-66
2023/10/27 03:17:03;;;;;;;26.00;10.97;;;;;;;;;;5082841;28;20176;-66
2023/10/27 03:19:28;;;;;;;24.83;9.50;;;;;;;;;;5079057;28;20099;-66
2023/10/27 03:21:53;;;;;;;26.10;10.23;;;;;;;;;;5081008;28;20024;-66
2023/10/27 03:24:18;;;;;;;27.93;10.50;;;;;;;;;;5077261;28;20028;-66
2023/10/27 03:26:44;;;;;;;24.63;9.57;;;;;;;;;;5081943;28;20449;-66
2023/10/27 03:29:09;;;;;;;22.20;9.13;;;;;;;;;;5078461;28;20073;-66
2023/10/27 03:31:34;;;;;;;21.07;8.47;;;;;;;;;;5080672;28;20034;-66
2023/10/27 03:34:00;;;;;;;26.90;9.17;;;;;;;;;;5078422;28;20051;-66
2023/10/27 03:36:25;;;;;;;22.47;8.90;;;;;;;;;;5080461;28;20617;-66
2023/10/27 03:38:50;;;;;;;23.23;9.10;;;;;;;;;;5083547;28;20331;-65
2023/10/27 03:41:15;;;;;;;23.27;9.47;;;;;;;;;;5080077;28;20519;-66
2023/10/27 03:43:41;;;;;;;28.00;10.00;;;;;;;;;;5077134;28;20028;-66
2023/10/27 03:46:07;;;;;;;24.17;8.80;;;;;;;;;;5078585;28;20029;-66
2023/10/27 03:48:32;;;;;;;23.53;9.27;;;;;;;;;;5081870;28;20020;-66
2023/10/27 03:51:02;;;;;;;23.63;9.33;;;;;;;;;;5083032;28;20016;-66
2023/10/27 03:53:30;;;;;;;22.70;9.23;;;;;;;;;;5079726;28;20028;-66
2023/10/27 03:55:55;;;;;;;25.97;9.63;;;;;;;;;;5078774;28;20030;-64
2023/10/27 03:58:20;;;;;;;27.13;9.90;;;;;;;;;;5083200;28;20023;-65
2023/10/27 04:00:45;;;;;;;24.63;9.30;;;;;;;;;;5077894;28;20032;-64
2023/10/27 04:03:11;;;;;;;26.10;9.83;;;;;;;;;;5081187;28;20048;-64
2023/10/27 04:05:37;;;;;;;24.00;9.67;;;;;;;;;;5081345;28;20028;-64
2023/10/27 04:08:04;;;;;;;27.10;10.23;;;;;;;;;;5084664;28;20349;-64
2023/10/27 04:10:31;;;;;;;24.20;9.70;;;;;;;;;;5077744;28;20048;-63
2023/10/27 04:12:57;;;;;;;23.20;9.13;;;;;;;;;;5079432;28;20414;-62
2023/10/27 04:15:22;;;;;;;22.43;9.03;;;;;;;;;;5079171;28;20037;-64
2023/10/27 04:17:47;;;;;;;23.73;9.60;;;;;;;;;;5082444;28;20031;-64
2023/10/27 04:20:12;;;;;;;21.90;9.33;;;;;;;;;;5076445;28;20024;-63
2023/10/27 04:22:38;;;;;;;22.23;8.97;;;;;;;;;;5081871;28;20024;-63
2023/10/27 04:25:03;;;;;;;22.07;9.70;;;;;;;;;;5077111;28;20020;-64
2023/10/27 04:27:28;;;;;;;23.87;9.73;;;;;;;;;;5079727;28;20027;-63
2023/10/27 04:29:54;;;;;;;24.43;9.67;;;;;;;;;;5080657;28;20107;-63
2023/10/27 04:32:20;;;;;;;27.73;10.17;;;;;;;;;;5074671;28;20529;-64
2023/10/27 04:34:46;;;;;;;22.57;9.83;;;;;;;;;;5076390;28;20099;-63
2023/10/27 04:37:11;;;;;;;22.37;10.07;;;;;;;;;;5078802;28;20016;-63
2023/10/27 04:39:36;;;;;;;24.70;11.23;;;;;;;;;;5079390;28;20081;-64
2023/10/27 04:42:01;;;;;;;22.33;9.33;;;;;;;;;;5079377;28;20074;-63
2023/10/27 04:44:26;;;;;;;22.40;10.33;;;;;;;;;;5076224;28;20031;-64
2023/10/27 04:46:52;;;;;;;21.53;9.30;;;;;;;;;;5080492;28;20480;-64
2023/10/27 04:49:18;;;;;;;21.07;9.10;;;;;;;;;;5076130;28;20142;-64
2023/10/27 04:51:43;;;;;;;24.00;8.83;;;;;;;;;;5077832;28;20035;-65
2023/10/27 04:54:08;;;;;;;21.67;9.03;;;;;;;;;;5074815;28;20283;-63
2023/10/27 04:56:33;;;;;;;26.00;9.50;;;;;;;;;;5080294;28;20032;-62
2023/10/27 04:58:59;;;;;;;19.97;8.83;;;;;;;;;;5077105;28;20128;-63
2023/10/27 05:01:25;;;;;;;24.37;9.03;;;;;;;;;;5080903;28;20114;-63
2023/10/27 05:03:50;;;;;;;22.00;9.47;;;;;;;;;;5081350;28;20059;-63
2023/10/27 05:06:16;;;;;;;22.63;9.23;;;;;;;;;;5077214;28;20028;-64
2023/10/27 05:08:41;;;;;;;22.73;8.80;;;;;;;;;;5079559;28;20012;-63
2023/10/27 05:11:06;;;;;;;25.03;9.67;;;;;;;;;;5078836;28;20020;-63
2023/10/27 05:13:31;;;;;;;21.60;9.00;;;;;;;;;;5079954;28;20380;-63
2023/10/27 05:15:57;;;;;;;23.63;9.63;;;;;;;;;;5078575;28;20035;-64
2023/10/27 05:18:22;;;;;;;17.60;7.53;;;;;;;;;;5078701;28;20099;-63
2023/10/27 05:20:47;;;;;;;23.23;9.67;;;;;;;;;;5080253;28;20677;-64
2023/10/27 05:23:13;;;;;;;21.73;8.97;;;;;;;;;;5079855;28;20024;-62
2023/10/27 05:25:39;;;;;;;22.90;9.87;;;;;;;;;;5078521;28;20200;-64
2023/10/27 05:28:04;;;;;;;21.10;8.83;;;;;;;;;;5077573;28;20294;-63
2023/10/27 05:30:29;;;;;;;23.53;10.00;;;;;;;;;;5073846;28;20024;-64
2023/10/27 05:32:54;;;;;;;21.37;9.33;;;;;;;;;;5078231;28;20016;-64
2023/10/27 05:35:19;;;;;;;22.10;9.40;;;;;;;;;;5078994;28;20419;-64
2023/10/27 05:37:45;;;;;;;29.73;9.47;;;;;;;;;;5079274;28;20027;-64
2023/10/27 05:40:10;;;;;;;24.87;10.00;;;;;;;;;;5077513;28;20436;-63
2023/10/27 05:42:35;;;;;;;26.07;10.30;;;;;;;;;;5076263;28;20021;-63
2023/10/27 05:45:01;;;;;;;24.73;9.33;;;;;;;;;;5078422;28;20074;-64
2023/10/27 05:47:26;;;;;;;28.70;10.90;;;;;;;;;;5077997;28;20511;-64
2023/10/27 05:49:54;;;;;;;30.07;11.03;;;;;;;;;;5080698;28;20152;-64
2023/10/27 05:52:20;;;;;;;28.63;10.87;;;;;;;;;;5078544;28;20062;-63
2023/10/27 05:54:45;;;;;;;29.63;10.67;;;;;;;;;;5081110;28;20020;-64
2023/10/27 05:57:10;;;;;;;25.47;9.57;;;;;;;;;;5079254;28;20502;-63
2023/10/27 05:59:36;;;;;;;30.17;10.80;;;;;;;;;;5072513;28;20471;-64
2023/10/27 06:02:01;;;;;;;29.60;10.10;;;;;;;;;;5080879;28;20520;-63
2023/10/27 06:04:27;;;;;;;32.50;11.60;;;;;;;;;;5081094;28;20043;-64
2023/10/27 06:06:52;;;;;;;33.73;11.23;;;;;;;;;;5079212;28;20475;-63
2023/10/27 06:09:18;;;;;;;34.70;11.00;;;;;;;;;;5079138;28;20023;-63
2023/10/27 06:11:43;;;;;;;32.60;10.97;;;;;;;;;;5083854;28;20035;-63
2023/10/27 06:14:08;;;;;;;35.10;11.47;;;;;;;;;;5086300;28;20066;-63
2023/10/27 06:16:34;;;;;;;40.93;11.90;;;;;;;;;;5083953;28;20032;-64
2023/10/27 06:18:59;;;;;;;37.97;11.23;;;;;;;;;;5078831;28;20016;-63
2023/10/27 06:21:25;;;;;;;36.67;11.77;;;;;;;;;;5086320;28;20020;-64
2023/10/27 06:23:50;;;;;;;41.07;12.50;;;;;;;;;;5086618;28;20039;-64
2023/10/27 06:26:16;;;;;;;36.50;11.30;;;;;;;;;;5081541;28;20030;-63
2023/10/27 06:28:41;;;;;;;36.53;12.17;;;;;;;;;;5081700;28;20020;-65
2023/10/27 06:31:06;;;;;;;41.13;12.13;;;;;;;;;;5077852;28;20024;-64
2023/10/27 06:33:32;;;;;;;40.53;12.43;;;;;;;;;;5083589;28;20095;-64
2023/10/27 06:35:58;;;;;;;43.03;13.20;;;;;;;;;;5084881;28;20027;-63
2023/10/27 06:38:23;;;;;;;37.77;12.50;;;;;;;;;;5081729;28;20024;-63
2023/10/27 06:40:48;;;;;;;42.43;12.77;;;;;;;;;;5080698;28;20068;-63
2023/10/27 06:43:13;;;;;;;39.37;11.83;;;;;;;;;;5080100;28;20101;-64
2023/10/27 06:45:39;;;;;;;44.23;12.57;;;;;;;;;;5080890;28;20451;-64
2023/10/27 06:48:04;;;;;;;39.97;11.57;;;;;;;;;;5083442;28;20541;-65
2023/10/27 06:50:29;;;;;;;44.33;12.40;;;;;;;;;;5081917;28;20024;-65
2023/10/27 06:52:54;;;;;;;38.83;12.40;;;;;;;;;;5081482;28;20360;-65
2023/10/27 06:55:21;;;;;;;41.63;12.63;;;;;;;;;;5081847;28;20495;-65
2023/10/27 06:57:46;;;;;;;34.17;10.87;;;;;;;;;;5081572;28;20381;-63
2023/10/27 07:00:12;;;;;;;35.67;11.90;;;;;;;;;;5084612;28;20099;-64
2023/10/27 07:02:37;;;;;;;31.27;11.13;;;;;;;;;;5080461;28;20044;-65
2023/10/27 07:05:03;;;;;;;31.67;10.40;;;;;;;;;;5083640;28;20023;-65
2023/10/27 07:07:29;;;;;;;32.70;11.03;;;;;;;;;;5080928;28;20039;-65
2023/10/27 07:09:54;;;;;;;33.60;11.50;;;;;;;;;;5084373;28;20052;-66
2023/10/27 07:12:19;;;;;;;34.73;11.03;;;;;;;;;;5085227;28;20095;-64
2023/10/27 07:14:45;;;;;;;29.87;10.63;;;;;;;;;;5084755;28;20024;-64
2023/10/27 07:17:10;;;;;;;34.10;11.60;;;;;;;;;;5081481;28;20028;-64
2023/10/27 07:19:35;;;;;;;35.53;11.83;;;;;;;;;;5079655;28;20025;-65
2023/10/27 07:22:01;;;;;;;32.63;11.47;;;;;;;;;;5080162;28;20102;-64
2023/10/27 07:24:28;;;;;;;32.57;11.07;;;;;;;;;;5067741;28;20070;-67
2023/10/27 07:26:53;;;;;;;33.80;11.93;;;;;;;;;;5082397;28;20460;-68
2023/10/27 07:29:18;;;;;;;36.97;12.00;;;;;;;;;;5080814;28;20103;-68
2023/10/27 07:31:43;;;;;;;30.77;10.63;;;;;;;;;;5084185;28;20016;-68
2023/10/27 07:34:09;;;;;;;32.30;11.20;;;;;;;;;;5085670;28;20415;-68
2023/10/27 07:36:34;;;;;;;29.50;10.63;;;;;;;;;;5082328;28;20509;-67
2023/10/27 07:38:59;;;;;;;29.23;10.20;;;;;;;;;;5078957;28;20204;-67
2023/10/27 07:41:24;;;;;;;30.87;10.07;;;;;;;;;;5082195;28;20028;-67
2023/10/27 07:43:49;;;;;;;28.77;10.70;;;;;;;;;;5083410;28;20069;-68
2023/10/27 07:46:15;;;;;;;29.27;10.53;;;;;;;;;;5083859;28;20024;-67
2023/10/27 07:48:41;;;;;;;31.57;10.60;;;;;;;;;;5078988;28;20028;-67
2023/10/27 07:51:06;;;;;;;27.67;10.70;;;;;;;;;;5077373;28;20020;-67
2023/10/27 07:53:32;;;;;;;27.00;11.00;;;;;;;;;;5081545;28;20024;-67
2023/10/27 07:55:57;;;;;;;26.77;10.47;;;;;;;;;;5083328;28;20377;-67
2023/10/27 07:58:24;;;;;;;25.33;10.77;;;;;;;;;;5081187;28;20042;-67
2023/10/27 08:00:51;;;;;;;26.37;10.73;;;;;;;;;;5080763;28;20332;-67
2023/10/27 08:03:16;;;;;;;23.90;9.60;;;;;;;;;;5078598;28;20059;-67
2023/10/27 08:05:41;;;;;;;28.50;9.93;;;;;;;;;;5080800;28;20535;-68
2023/10/27 08:08:07;;;;;;;25.67;10.50;;;;;;;;;;5072300;28;20371;-66
2023/10/27 08:10:32;;;;;;;24.07;10.33;;;;;;;;;;5078809;28;20047;-67
2023/10/27 08:12:57;;;;;;;23.13;9.43;;;;;;;;;;5083753;28;20024;-65
2023/10/27 08:15:25;;;;;;;22.90;9.93;;;;;;;;;;5079287;28;20362;-66
2023/10/27 08:17:51;;;;;;;20.17;8.57;;;;;;;;;;5082797;28;20326;-65
2023/10/27 08:20:16;;;;;;;24.53;10.77;;;;;;;;;;5084167;28;20387;-67
2023/10/27 08:22:43;;;;;;;20.87;9.43;;;;;;;;;;5079751;28;20568;-65
2023/10/27 08:25:08;;;;;;;22.37;9.83;;;;;;;;;;5079859;28;20031;-66
2023/10/27 08:27:33;;;;;;;23.77;10.23;;;;;;;;;;5081146;28;20676;-64
2023/10/27 08:29:59;;;;;;;23.53;10.10;;;;;;;;;;5080364;28;20024;-66
2023/10/27 08:32:24;;;;;;;24.00;11.03;;;;;;;;;;5078602;28;20021;-66
2023/10/27 08:34:49;;;;;;;25.73;10.37;;;;;;;;;;5078235;28;20052;-66
2023/10/27 08:37:16;;;;;;;22.40;9.57;;;;;;;;;;5077047;28;20071;-65
2023/10/27 08:39:42;;;;;;;20.70;9.83;;;;;;;;;;5081627;28;20020;-66
2023/10/27 08:42:07;;;;;;;25.07;11.37;;;;;;;;;;5083302;28;20085;-66
2023/10/27 08:44:33;;;;;;;24.77;11.07;;;;;;;;;;5081339;28;20401;-66
2023/10/27 08:46:58;;;;;;;23.27;10.30;;;;;;;;;;5080428;28;20495;-65
2023/10/27 08:49:24;;;;;;;25.57;10.10;;;;;;;;;;5078473;28;20027;-65
2023/10/27 08:51:50;;;;;;;23.70;11.00;;;;;;;;;;5079993;28;20017;-65
2023/10/27 08:54:16;;;;;;;22.17;9.93;;;;;;;;;;5081213;28;20047;-65
2023/10/27 08:56:41;;;;;;;24.40;11.60;;;;;;;;;;5078962;28;20103;-66
2023/10/27 08:59:09;;;;;;;24.47;11.03;;;;;;;;;;5079451;28;20327;-66
2023/10/27 09:01:35;;;;;;;22.20;11.20;;;;;;;;;;5077167;28;20027;-65
2023/10/27 09:04:14;;;;;;;25.83;11.47;;;;;;;;;;5080064;28;20059;-66
2023/10/27 09:06:40;;;;;;;25.43;11.20;;;;;;;;;;5081557;28;20028;-65
2023/10/27 09:09:06;;;;;;;24.87;11.87;;;;;;;;;;5080018;28;20052;-69
2023/10/27 09:11:48;;;;;;;28.27;12.90;;;;;;;;;;5082897;28;20054;-64
2023/10/27 09:14:27;;;;;;;26.03;12.27;;;;;;;;;;5078670;28;20027;-65
2023/10/27 09:17:13;;;;;;;27.23;12.30;;;;;;;;;;5082887;28;20562;-66
2023/10/27 09:19:39;;;;;;;34.37;13.27;;;;;;;;;;5075922;28;20024;-65
2023/10/27 09:22:15;;;;;;;29.70;13.03;;;;;;;;;;5082677;28;20480;-65
2023/10/27 09:24:40;;;;;;;30.20;12.73;;;;;;;;;;5076883;28;20127;-64
2023/10/27 09:27:06;;;;;;;29.33;12.17;;;;;;;;;;5080058;28;20571;-65
2023/10/27 09:29:43;;;;;;;28.50;11.43;;;;;;;;;;5074517;28;20339;-65
2023/10/27 09:32:24;;;;;;;37.10;14.57;;;;;;;;;;5081722;28;20095;-66
2023/10/27 09:35:07;;;;;;;35.75;14.00;;;;;;;;;;5079802;28;20711;-65
2023/10/27 09:37:32;;;;;;;34.37;13.43;;;;;;;;;;5079810;28;20111;-66
2023/10/27 09:39:58;;;;;;;37.07;14.27;;;;;;;;;;5081197;28;20420;-65
2023/10/27 09:42:23;;;;;;;38.80;15.73;;;;;;;;;;5073874;28;20413;-67
2023/10/27 09:45:00;;;;;;;36.07;13.77;;;;;;;;;;5077420;28;20039;-65
2023/10/27 09:47:33;;;;;;;37.13;14.33;;;;;;;;;;5083011;28;20370;-66
2023/10/27 09:50:06;;;;;;;36.50;13.50;;;;;;;;;;5086284;28;20481;-66
2023/10/27 09:52:32;;;;;;;35.17;14.10;;;;;;;;;;5084268;28;20051;-65
2023/10/27 09:54:58;;;;;;;39.40;15.23;;;;;;;;;;5085467;28;20262;-65
2023/10/27 09:57:24;;;;;;;38.07;15.27;;;;;;;;;;5077050;28;20380;-66
2023/10/27 09:59:51;;;;;;;38.63;15.23;;;;;;;;;;5082799;28;20416;-65
2023/10/27 10:02:17;;;;;;;37.30;14.93;;;;;;;;;;5086014;28;20503;-65
2023/10/27 10:04:51;;;;;;;37.03;14.87;;;;;;;;;;5082741;28;20074;-65
2023/10/27 10:07:28;;;;;;;36.83;14.00;;;;;;;;;;5080701;28;20040;-65
2023/10/27 10:09:53;;;;;;;31.37;13.00;;;;;;;;;;5082855;28;20016;-66
2023/10/27 10:12:18;;;;;;;39.57;17.33;;;;;;;;;;5082428;28;20499;-65
2023/10/27 10:14:45;;;;;;;37.63;13.47;;;;;;;;;;5085004;28;20012;-65
2023/10/27 10:17:10;;;;;;;36.17;13.50;;;;;;;;;;5080496;28;20587;-65
2023/10/27 10:19:50;;;;;;;39.87;16.67;;;;;;;;;;5085213;28;20013;-66
2023/10/27 10:22:34;;;;;;;41.77;17.27;;;;;;;;;;5082310;28;20024;-66
2023/10/27 10:25:14;;;;;;;39.43;16.30;;;;;;;;;;5084215;28;20468;-66
2023/10/27 10:27:58;;;;;;;38.27;14.00;;;;;;;;;;5082341;28;20016;-65
2023/10/27 10:30:24;;;;;;;41.47;18.17;;;;;;;;;;5084267;28;21103;-65
2023/10/27 10:32:49;;;;;;;39.60;16.60;;;;;;;;;;5084013;28;20012;-65
2023/10/27 10:35:24;;;;;;;35.13;15.20;;;;;;;;;;5081178;28;20024;-65
2023/10/27 10:37:51;;;;;;;44.07;18.10;;;;;;;;;;5084096;28;20516;-67
2023/10/27 10:40:17;;;;;;;40.80;17.17;;;;;;;;;;5073170;28;20099;-67
2023/10/27 10:43:01;;;;;;;41.97;17.93;;;;;;;;;;5083076;28;20544;-67
2023/10/27 10:45:26;;;;;;;31.03;13.30;;;;;;;;;;5080204;28;20049;-65
2023/10/27 10:47:55;;;;;;;36.07;14.63;;;;;;;;;;5081452;28;20102;-65
2023/10/27 10:50:27;;;;;;;34.50;14.57;;;;;;;;;;5082651;28;20492;-66
2023/10/27 10:53:08;;;;;;;35.13;13.80;;;;;;;;;;5080523;28;20005;-66
2023/10/27 10:55:34;;;;;;;37.40;16.02;;;;;;;;;;5077492;28;20035;-67
2023/10/27 10:57:59;;;;;;;37.30;14.80;;;;;;;;;;5084196;28;20438;-67
2023/10/27 11:00:31;;;;;;;38.20;16.47;;;;;;;;;;5085851;28;20038;-67
2023/10/27 11:03:09;;;;;;;32.83;14.50;;;;;;;;;;5085133;28;20544;-66
2023/10/27 11:05:35;;;;;;;33.70;12.77;;;;;;;;;;5080676;28;20326;-66
2023/10/27 11:08:01;;;;;;;40.97;16.83;;;;;;;;;;5083389;28;20016;-66
2023/10/27 11:10:26;;;;;;;40.33;16.70;;;;;;;;;;5084417;28;20024;-67
2023/10/27 11:12:51;;;;;;;34.10;13.33;;;;;;;;;;5084233;28;20066;-66
2023/10/27 11:15:36;;;;;;;32.93;13.33;;;;;;;;;;5081754;28;20041;-66
2023/10/27 11:18:04;;;;;;;31.63;12.90;;;;;;;;;;5080401;28;20020;-66
2023/10/27 11:20:37;;;;;;;28.13;11.63;;;;;;;;;;5081410;28;20023;-65
2023/10/27 11:23:08;;;;;;;30.23;13.00;;;;;;;;;;5084239;28;20024;-67
2023/10/27 11:25:34;;;;;;;39.42;16.42;;;;;;;;;;5079175;28;20320;-67
2023/10/27 11:28:18;;;;;;;41.47;17.63;;;;;;;;;;5081168;28;20024;-67
2023/10/27 11:30:43;;;;;;;38.50;16.37;;;;;;;;;;5081226;28;20541;-67
2023/10/27 11:33:08;;;;;;;34.27;14.80;;;;;;;;;;5080510;28;20315;-67
2023/10/27 11:35:44;;;;;;;32.77;13.57;;;;;;;;;;5082022;28;20142;-66
2023/10/27 11:38:09;;;;;;;38.97;14.83;;;;;;;;;;5077565;28;20020;-66
2023/10/27 11:40:34;;;;;;;41.77;15.03;;;;;;;;;;5082432;28;20031;-67
2023/10/27 11:43:00;;;;;;;40.73;14.40;;;;;;;;;;5079940;28;20580;-66
2023/10/27 11:45:25;;;;;;;37.60;14.57;;;;;;;;;;5079403;28;20024;-66
2023/10/27 11:47:50;;;;;;;35.73;14.93;;;;;;;;;;5079598;28;20543;-65
2023/10/27 11:50:15;;;;;;;36.43;14.83;;;;;;;;;;5079834;28;20019;-66
2023/10/27 11:52:40;;;;;;;33.80;13.77;;;;;;;;;;5078847;28;20484;-66
2023/10/27 11:55:06;;;;;;;39.67;14.73;;;;;;;;;;5081595;28;20024;-66
2023/10/27 11:57:31;;;;;;;37.57;15.83;;;;;;;;;;5082079;28;20402;-67
2023/10/27 11:59:56;;;;;;;37.27;14.53;;;;;;;;;;5084123;28;20445;-67
2023/10/27 12:02:21;;;;;;;33.17;13.80;;;;;;;;;;5077613;28;20556;-67
2023/10/27 12:04:47;;;;;;;37.27;15.93;;;;;;;;;;5077308;28;20492;-67
2023/10/27 12:07:14;;;;;;;37.90;15.63;;;;;;;;;;5082331;28;20020;-67
2023/10/27 12:09:39;;;;;;;37.67;15.80;;;;;;;;;;5081211;28;20017;-66
2023/10/27 12:12:05;;;;;;;38.47;15.20;;;;;;;;;;5084104;28;20046;-67
2023/10/27 12:14:30;;;;;;;33.40;14.40;;;;;;;;;;5077461;28;20029;-66
2023/10/27 12:16:56;;;;;;;36.13;14.60;;;;;;;;;;5078475;28;20572;-67
2023/10/27 12:19:21;;;;;;;34.90;13.77;;;;;;;;;;5083403;28;20118;-66
2023/10/27 12:21:46;;;;;;;37.23;15.53;;;;;;;;;;5081042;28;20493;-66
2023/10/27 12:24:11;;;;;;;32.47;13.47;;;;;;;;;;5080999;28;20089;-66
2023/10/27 12:26:37;;;;;;;37.73;15.07;;;;;;;;;;5082463;28;20528;-66
2023/10/27 12:29:04;;;;;;;35.17;14.30;;;;;;;;;;5082754;28;20020;-68
2023/10/27 12:31:29;;;;;;;34.17;14.50;;;;;;;;;;5083075;28;20546;-67
2023/10/27 12:33:54;;;;;;;36.63;14.07;;;;;;;;;;5082315;28;20027;-67
2023/10/27 12:36:20;;;;;;;35.03;14.37;;;;;;;;;;5076251;28;20078;-68
2023/10/27 12:38:45;;;;;;;30.67;11.20;;;;;;;;;;5082155;28;20404;-68
2023/10/27 12:41:12;;;;;;;29.00;10.73;;;;;;;;;;5076922;28;20162;-66
2023/10/27 12:43:37;;;;;;;26.33;10.50;;;;;;;;;;5082208;28;20077;-66
2023/10/27 12:46:03;;;;;;;29.87;11.37;;;;;;;;;;5078729;28;20032;-68
2023/10/27 12:48:30;;;;;;;30.07;12.47;;;;;;;;;;5077962;28;20040;-69
2023/10/27 12:50:55;;;;;;;27.97;11.83;;;;;;;;;;5079751;28;20065;-67
2023/10/27 12:53:20;;;;;;;30.77;12.50;;;;;;;;;;5077993;28;20016;-67
2023/10/27 12:55:46;;;;;;;29.23;12.53;;;;;;;;;;5081314;28;20020;-68
2023/10/27 12:58:11;;;;;;;27.33;11.33;;;;;;;;;;5075458;28;20028;-68
2023/10/27 13:00:37;;;;;;;27.90;11.60;;;;;;;;;;5077214;28;20280;-68
2023/10/27 13:03:04;;;;;;;26.77;10.80;;;;;;;;;;5078045;28;20512;-67
2023/10/27 13:05:29;;;;;;;25.87;10.07;;;;;;;;;;5080431;28;20384;-68
2023/10/27 13:07:56;;;;;;;29.23;12.00;;;;;;;;;;5081894;28;20020;-68
2023/10/27 13:10:24;;;;;;;24.50;10.87;;;;;;;;;;5079495;28;20103;-68
2023/10/27 13:12:50;;;;;;;23.77;9.97;;;;;;;;;;5076726;28;20070;-68
2023/10/27 13:15:19;;;;;;;24.13;10.27;;;;;;;;;;5080311;28;20020;-68
2023/10/27 13:17:44;;;;;;;24.23;9.70;;;;;;;;;;5081447;28;20024;-67
2023/10/27 13:20:13;;;;;;;26.63;10.33;;;;;;;;;;5060619;28;20035;-68
2023/10/27 13:22:38;;;;;;;22.80;9.67;;;;;;;;;;5082719;28;20499;-68
2023/10/27 13:25:07;;;;;;;23.83;10.73;;;;;;;;;;5073865;28;20103;-67
2023/10/27 13:27:32;;;;;;;24.93;10.93;;;;;;;;;;5079671;28;20035;-68
2023/10/27 13:29:58;;;;;;;25.87;11.03;;;;;;;;;;5078629;28;20106;-68
2023/10/27 13:32:27;;;;;;;24.17;10.27;;;;;;;;;;5079367;28;20055;-68
2023/10/27 13:34:54;;;;;;;27.90;10.87;;;;;;;;;;5082517;28;20062;-68
2023/10/27 13:37:19;;;;;;;25.47;10.50;;;;;;;;;;5078775;28;20024;-68
2023/10/27 13:39:46;;;;;;;25.10;11.07;;;;;;;;;;5082773;28;20240;-66
2023/10/27 13:42:12;;;;;;;27.33;11.47;;;;;;;;;;5078128;28;20488;-68
2023/10/27 13:44:39;;;;;;;25.00;10.40;;;;;;;;;;5077363;28;20095;-67
2023/10/27 13:47:04;;;;;;;26.60;11.03;;;;;;;;;;5079754;28;20448;-67
2023/10/27 13:49:30;;;;;;;24.00;10.30;;;;;;;;;;5077706;28;20081;-67
2023/10/27 13:51:55;;;;;;;24.33;10.30;;;;;;;;;;5076525;28;20460;-68
2023/10/27 13:54:21;;;;;;;28.40;10.80;;;;;;;;;;5077119;28;20419;-68
2023/10/27 13:56:46;;;;;;;27.87;10.90;;;;;;;;;;5074227;28;20528;-68
2023/10/27 13:59:11;;;;;;;26.63;10.93;;;;;;;;;;5077123;28;20065;-68
2023/10/27 14:01:38;;;;;;;27.33;11.20;;;;;;;;;;5075081;28;20117;-67
2023/10/27 14:04:06;;;;;;;25.73;10.73;;;;;;;;;;5076888;28;20036;-68
2023/10/27 14:06:32;;;;;;;23.33;9.83;;;;;;;;;;5076257;28;20036;-68
2023/10/27 14:08:58;;;;;;;25.33;9.80;;;;;;;;;;5072491;28;20085;-68
2023/10/27 14:11:24;;;;;;;23.83;10.57;;;;;;;;;;5075040;28;20032;-68
2023/10/27 14:13:49;;;;;;;25.40;11.10;;;;;;;;;;5076134;28;20633;-68
2023/10/27 14:16:16;;;;;;;25.67;10.70;;;;;;;;;;5076368;28;20024;-67
2023/10/27 14:18:41;;;;;;;23.77;10.87;;;;;;;;;;5074861;28;20043;-68
2023/10/27 14:21:07;;;;;;;22.83;10.03;;;;;;;;;;5077268;28;20024;-68
2023/10/27 14:23:33;;;;;;;26.20;10.90;;;;;;;;;;5076377;28;20048;-68